Terminal Aerodrome Forecast
Issued by NWS

Home | Current Version | Previous Version | Text Only | Print | Product List | Glossary On
Versions: 1 2 3 4 5 6 7 8 9 10 11 12 13 14 15 16
308
FTUS42 TJSJ 261138
TAFJBQ
TAF
TJBQ 261138Z 2612/2712 VRB05KT P6SM VCSH FEW025 SCT050 BKN100
     FM261400 23004KT P6SM SCT030 SCT050
     FM261800 28005KT P6SM VCTS SCT025CB BKN050
     FM262300 VRB02KT P6SM FEW025 FEW060=

USA.gov is the U.S. government's official web portal to all federal, state and local government web resources and services.